sensor_id;sensor_type;location;lat;lon;timestamp;pressure;altitude;pressure_sealevel;temperature;humidity
78313;BME280;67568;47.438;21.408;2023-02-20T00:01:35;101175.00;;;4.94;63.78
78313;BME280;67568;47.438;21.408;2023-02-20T00:04:04;101173.56;;;4.92;63.99
78313;BME280;67568;47.438;21.408;2023-02-20T00:06:31;101186.25;;;4.93;63.98
78313;BME280;67568;47.438;21.408;2023-02-20T00:09:00;101179.94;;;4.92;63.55
78313;BME280;67568;47.438;21.408;2023-02-20T00:11:27;101189.22;;;4.91;62.46
78313;BME280;67568;47.438;21.408;2023-02-20T00:13:53;101182.06;;;4.90;62.70
78313;BME280;67568;47.438;21.408;2023-02-20T00:16:20;101179.31;;;4.90;62.58
78313;BME280;67568;47.438;21.408;2023-02-20T00:18:49;101181.59;;;4.93;62.28
78313;BME280;67568;47.438;21.408;2023-02-20T00:21:15;101188.16;;;4.92;61.34
78313;BME280;67568;47.438;21.408;2023-02-20T00:23:42;101198.06;;;4.93;62.29
78313;BME280;67568;47.438;21.408;2023-02-20T00:26:13;101203.88;;;4.97;61.63
78313;BME280;67568;47.438;21.408;2023-02-20T00:28:42;101203.28;;;4.95;61.79
78313;BME280;67568;47.438;21.408;2023-02-20T00:31:12;101211.19;;;4.91;61.95
78313;BME280;67568;47.438;21.408;2023-02-20T00:33:39;101211.91;;;4.99;61.64
78313;BME280;67568;47.438;21.408;2023-02-20T00:36:06;101218.66;;;5.08;62.29
78313;BME280;67568;47.438;21.408;2023-02-20T00:38:36;101220.09;;;5.10;61.60
78313;BME280;67568;47.438;21.408;2023-02-20T00:41:02;101217.69;;;5.14;61.73
78313;BME280;67568;47.438;21.408;2023-02-20T00:43:29;101213.94;;;5.20;62.87
78313;BME280;67568;47.438;21.408;2023-02-20T00:45:55;101216.84;;;5.13;62.39
78313;BME280;67568;47.438;21.408;2023-02-20T00:48:22;101225.59;;;5.10;61.82
78313;BME280;67568;47.438;21.408;2023-02-20T00:50:52;101220.44;;;5.14;62.00
78313;BME280;67568;47.438;21.408;2023-02-20T00:53:18;101217.69;;;5.14;62.17
78313;BME280;67568;47.438;21.408;2023-02-20T00:55:45;101218.28;;;5.16;63.29
78313;BME280;67568;47.438;21.408;2023-02-20T00:58:12;101209.44;;;5.14;62.67
78313;BME280;67568;47.438;21.408;2023-02-20T01:00:38;101210.31;;;5.03;63.04
78313;BME280;67568;47.438;21.408;2023-02-20T01:03:06;101216.91;;;5.02;64.17
78313;BME280;67568;47.438;21.408;2023-02-20T01:05:32;101207.69;;;5.08;65.09
78313;BME280;67568;47.438;21.408;2023-02-20T01:07:59;101212.84;;;5.04;63.99
78313;BME280;67568;47.438;21.408;2023-02-20T01:10:26;101203.72;;;5.04;63.89
78313;BME280;67568;47.438;21.408;2023-02-20T01:12:55;101206.53;;;4.92;66.11
78313;BME280;67568;47.438;21.408;2023-02-20T01:15:22;101203.56;;;4.93;66.59
78313;BME280;67568;47.438;21.408;2023-02-20T01:17:48;101207.38;;;4.92;66.26
78313;BME280;67568;47.438;21.408;2023-02-20T01:20:15;101211.19;;;4.91;66.82
78313;BME280;67568;47.438;21.408;2023-02-20T01:22:44;101213.81;;;4.86;65.58
78313;BME280;67568;47.438;21.408;2023-02-20T01:25:11;101208.25;;;4.81;65.47
78313;BME280;67568;47.438;21.408;2023-02-20T01:27:38;101213.13;;;4.79;65.57
78313;BME280;67568;47.438;21.408;2023-02-20T01:30:05;101209.19;;;4.75;65.04
78313;BME280;67568;47.438;21.408;2023-02-20T01:32:32;101205.50;;;4.81;66.26
78313;BME280;67568;47.438;21.408;2023-02-20T01:34:59;101204.53;;;4.87;65.41
78313;BME280;67568;47.438;21.408;2023-02-20T01:37:26;101204.63;;;4.92;64.73
78313;BME280;67568;47.438;21.408;2023-02-20T01:39:52;101210.69;;;4.94;67.17
78313;BME280;67568;47.438;21.408;2023-02-20T01:42:22;101215.84;;;4.91;65.81
78313;BME280;67568;47.438;21.408;2023-02-20T01:44:49;101225.72;;;5.04;65.69
78313;BME280;67568;47.438;21.408;2023-02-20T01:47:21;101218.38;;;4.92;67.67
78313;BME280;67568;47.438;21.408;2023-02-20T01:49:52;101230.56;;;4.85;69.19
78313;BME280;67568;47.438;21.408;2023-02-20T01:52:26;101238.44;;;4.81;68.42
78313;BME280;67568;47.438;21.408;2023-02-20T01:57:47;101241.75;;;4.83;68.21
78313;BME280;67568;47.438;21.408;2023-02-20T02:00:17;101238.78;;;4.85;68.86
78313;BME280;67568;47.438;21.408;2023-02-20T02:02:55;101242.59;;;4.84;68.75
78313;BME280;67568;47.438;21.408;2023-02-20T02:05:24;101243.53;;;4.89;69.30
78313;BME280;67568;47.438;21.408;2023-02-20T02:07:53;101244.75;;;4.93;68.49
78313;BME280;67568;47.438;21.408;2023-02-20T02:10:25;101242.09;;;4.99;69.03
78313;BME280;67568;47.438;21.408;2023-02-20T02:12:55;101245.19;;;5.02;68.27
78313;BME280;67568;47.438;21.408;2023-02-20T02:15:23;101242.94;;;4.99;68.68
78313;BME280;67568;47.438;21.408;2023-02-20T02:24:16;101263.38;;;4.80;70.28
78313;BME280;67568;47.438;21.408;2023-02-20T02:44:15;101279.50;;;4.76;69.38
78313;BME280;67568;47.438;21.408;2023-02-20T02:46:56;101286.66;;;4.89;69.16
78313;BME280;67568;47.438;21.408;2023-02-20T02:51:55;101284.00;;;4.94;69.90
78313;BME280;67568;47.438;21.408;2023-02-20T02:54:25;101280.66;;;4.92;69.24
78313;BME280;67568;47.438;21.408;2023-02-20T02:57:16;101276.41;;;4.84;68.58
78313;BME280;67568;47.438;21.408;2023-02-20T02:59:40;101274.38;;;4.80;68.36
78313;BME280;67568;47.438;21.408;2023-02-20T03:02:11;101280.13;;;4.78;68.41
78313;BME280;67568;47.438;21.408;2023-02-20T03:04:41;101277.38;;;4.78;68.77
78313;BME280;67568;47.438;21.408;2023-02-20T03:07:14;101279.97;;;4.85;69.98
78313;BME280;67568;47.438;21.408;2023-02-20T03:09:51;101290.00;;;4.79;69.79
78313;BME280;67568;47.438;21.408;2023-02-20T03:12:21;101287.41;;;4.72;68.88
78313;BME280;67568;47.438;21.408;2023-02-20T03:15:00;101294.91;;;4.77;68.78
78313;BME280;67568;47.438;21.408;2023-02-20T03:17:31;101300.53;;;4.70;69.25
78313;BME280;67568;47.438;21.408;2023-02-20T03:20:09;101306.38;;;4.62;68.94
78313;BME280;67568;47.438;21.408;2023-02-20T03:25:12;101308.75;;;4.59;69.42
78313;BME280;67568;47.438;21.408;2023-02-20T03:27:46;101308.97;;;4.69;69.24
78313;BME280;67568;47.438;21.408;2023-02-20T03:33:09;101312.94;;;4.73;69.80
78313;BME280;67568;47.438;21.408;2023-02-20T03:35:39;101326.53;;;4.68;68.95
78313;BME280;67568;47.438;21.408;2023-02-20T03:38:08;101331.19;;;4.67;69.47
78313;BME280;67568;47.438;21.408;2023-02-20T03:40:36;101331.56;;;4.71;68.97
78313;BME280;67568;47.438;21.408;2023-02-20T03:43:08;101327.84;;;4.65;69.14
78313;BME280;67568;47.438;21.408;2023-02-20T03:45:38;101345.03;;;4.61;69.10
78313;BME280;67568;47.438;21.408;2023-02-20T03:48:10;101342.19;;;4.56;68.79
78313;BME280;67568;47.438;21.408;2023-02-20T03:50:40;101344.66;;;4.57;68.80
78313;BME280;67568;47.438;21.408;2023-02-20T03:53:07;101341.91;;;4.57;68.59
78313;BME280;67568;47.438;21.408;2023-02-20T03:55:33;101346.34;;;4.58;69.46
78313;BME280;67568;47.438;21.408;2023-02-20T03:58:05;101348.38;;;4.51;68.48
78313;BME280;67568;47.438;21.408;2023-02-20T04:00:39;101350.28;;;4.50;69.10
78313;BME280;67568;47.438;21.408;2023-02-20T04:03:16;101357.31;;;4.46;69.84
78313;BME280;67568;47.438;21.408;2023-02-20T04:05:48;101364.09;;;4.44;69.70
78313;BME280;67568;47.438;21.408;2023-02-20T04:08:20;101356.72;;;4.33;70.12
78313;BME280;67568;47.438;21.408;2023-02-20T04:11:01;101355.38;;;4.35;69.92
78313;BME280;67568;47.438;21.408;2023-02-20T04:13:29;101350.75;;;4.36;70.09
78313;BME280;67568;47.438;21.408;2023-02-20T04:16:00;101347.72;;;4.25;70.85
78313;BME280;67568;47.438;21.408;2023-02-20T04:18:29;101339.22;;;4.15;70.73
78313;BME280;67568;47.438;21.408;2023-02-20T04:20:56;101336.00;;;4.06;71.19
78313;BME280;67568;47.438;21.408;2023-02-20T04:23:26;101337.69;;;4.08;71.43
78313;BME280;67568;47.438;21.408;2023-02-20T04:26:16;101339.34;;;4.09;71.39
78313;BME280;67568;47.438;21.408;2023-02-20T04:28:44;101343.88;;;4.03;71.43
78313;BME280;67568;47.438;21.408;2023-02-20T04:31:13;101343.34;;;3.94;71.83
78313;BME280;67568;47.438;21.408;2023-02-20T04:33:40;101339.34;;;3.78;71.90
78313;BME280;67568;47.438;21.408;2023-02-20T04:36:07;101351.03;;;3.74;71.90
78313;BME280;67568;47.438;21.408;2023-02-20T04:38:34;101350.28;;;3.67;71.26
78313;BME280;67568;47.438;21.408;2023-02-20T04:41:04;101347.41;;;3.62;72.10
78313;BME280;67568;47.438;21.408;2023-02-20T04:43:31;101350.47;;;3.53;72.01
78313;BME280;67568;47.438;21.408;2023-02-20T04:45:57;101351.78;;;3.51;72.10
78313;BME280;67568;47.438;21.408;2023-02-20T04:48:24;101348.41;;;3.49;72.29
78313;BME280;67568;47.438;21.408;2023-02-20T04:50:50;101340.66;;;3.46;73.22
78313;BME280;67568;47.438;21.408;2023-02-20T04:53:17;101354.00;;;3.42;73.14
78313;BME280;67568;47.438;21.408;2023-02-20T04:55:44;101367.28;;;3.38;73.47
78313;BME280;67568;47.438;21.408;2023-02-20T04:58:11;101362.50;;;3.34;73.77
78313;BME280;67568;47.438;21.408;2023-02-20T05:00:40;101356.22;;;3.33;73.96
78313;BME280;67568;47.438;21.408;2023-02-20T05:03:07;101355.59;;;3.31;74.24
78313;BME280;67568;47.438;21.408;2023-02-20T05:05:33;101356.25;;;3.27;75.04
78313;BME280;67568;47.438;21.408;2023-02-20T05:08:07;101364.47;;;3.27;74.88
78313;BME280;67568;47.438;21.408;2023-02-20T05:10:35;101362.19;;;3.24;75.27
78313;BME280;67568;47.438;21.408;2023-02-20T05:13:02;101361.63;;;3.22;76.02
78313;BME280;67568;47.438;21.408;2023-02-20T05:15:29;101352.69;;;3.26;75.81
78313;BME280;67568;47.438;21.408;2023-02-20T05:18:02;101359.00;;;3.27;75.48
78313;BME280;67568;47.438;21.408;2023-02-20T05:20:29;101356.41;;;3.32;75.83
78313;BME280;67568;47.438;21.408;2023-02-20T05:22:55;101364.78;;;3.37;75.58
78313;BME280;67568;47.438;21.408;2023-02-20T05:25:22;101369.19;;;3.38;75.17
78313;BME280;67568;47.438;21.408;2023-02-20T05:27:49;101371.56;;;3.34;75.84
78313;BME280;67568;47.438;21.408;2023-02-20T05:30:15;101379.09;;;3.39;75.81
78313;BME280;67568;47.438;21.408;2023-02-20T05:32:42;101385.31;;;3.46;75.62
78313;BME280;67568;47.438;21.408;2023-02-20T05:35:09;101387.03;;;3.47;75.18
78313;BME280;67568;47.438;21.408;2023-02-20T05:37:35;101384.03;;;3.49;75.56
78313;BME280;67568;47.438;21.408;2023-02-20T05:40:02;101379.38;;;3.49;75.47
78313;BME280;67568;47.438;21.408;2023-02-20T05:42:29;101395.34;;;3.52;75.68
78313;BME280;67568;47.438;21.408;2023-02-20T05:44:55;101393.22;;;3.54;75.04
78313;BME280;67568;47.438;21.408;2023-02-20T05:47:22;101399.91;;;3.58;75.04
78313;BME280;67568;47.438;21.408;2023-02-20T05:49:49;101404.63;;;3.70;75.13
78313;BME280;67568;47.438;21.408;2023-02-20T05:52:15;101388.00;;;3.83;74.64
78313;BME280;67568;47.438;21.408;2023-02-20T05:54:45;101396.06;;;3.96;73.80
78313;BME280;67568;47.438;21.408;2023-02-20T05:57:12;101393.72;;;4.12;73.50
78313;BME280;67568;47.438;21.408;2023-02-20T05:59:38;101406.91;;;4.33;73.05
78313;BME280;67568;47.438;21.408;2023-02-20T06:02:05;101415.53;;;4.48;72.53
78313;BME280;67568;47.438;21.408;2023-02-20T06:04:35;101406.84;;;4.63;72.41
78313;BME280;67568;47.438;21.408;2023-02-20T06:07:02;101408.88;;;4.68;70.74
78313;BME280;67568;47.438;21.408;2023-02-20T06:09:28;101414.38;;;4.80;70.86
78313;BME280;67568;47.438;21.408;2023-02-20T06:11:56;101411.78;;;4.85;69.89
78313;BME280;67568;47.438;21.408;2023-02-20T06:14:24;101416.31;;;4.79;70.45
78313;BME280;67568;47.438;21.408;2023-02-20T06:16:51;101416.03;;;4.69;70.08
78313;BME280;67568;47.438;21.408;2023-02-20T06:19:22;101415.41;;;4.55;70.46
78313;BME280;67568;47.438;21.408;2023-02-20T06:21:51;101415.88;;;4.52;70.10
78313;BME280;67568;47.438;21.408;2023-02-20T06:24:19;101420.66;;;4.45;70.37
78313;BME280;67568;47.438;21.408;2023-02-20T06:26:46;101405.84;;;4.34;70.17
78313;BME280;67568;47.438;21.408;2023-02-20T06:29:17;101404.91;;;4.40;70.43
78313;BME280;67568;47.438;21.408;2023-02-20T06:31:44;101405.84;;;4.46;70.52
78313;BME280;67568;47.438;21.408;2023-02-20T06:34:15;101407.91;;;4.50;69.44
78313;BME280;67568;47.438;21.408;2023-02-20T06:36:42;101418.28;;;4.48;69.70
78313;BME280;67568;47.438;21.408;2023-02-20T06:39:12;101414.59;;;4.55;69.13
78313;BME280;67568;47.438;21.408;2023-02-20T06:41:39;101416.28;;;4.56;68.75
78313;BME280;67568;47.438;21.408;2023-02-20T06:44:08;101413.06;;;4.59;67.49
78313;BME280;67568;47.438;21.408;2023-02-20T06:46:38;101405.19;;;4.62;67.34
78313;BME280;67568;47.438;21.408;2023-02-20T06:49:05;101406.00;;;4.63;67.50
78313;BME280;67568;47.438;21.408;2023-02-20T06:51:33;101406.00;;;4.63;67.65
78313;BME280;67568;47.438;21.408;2023-02-20T06:54:01;101413.44;;;4.74;67.76
78313;BME280;67568;47.438;21.408;2023-02-20T06:56:31;101403.06;;;4.88;66.55
78313;BME280;67568;47.438;21.408;2023-02-20T06:58:59;101396.59;;;4.82;66.31
78313;BME280;67568;47.438;21.408;2023-02-20T07:01:29;101408.91;;;4.91;65.39
78313;BME280;67568;47.438;21.408;2023-02-20T07:03:57;101400.91;;;5.02;65.10
78313;BME280;67568;47.438;21.408;2023-02-20T07:06:27;101399.25;;;5.12;64.83
78313;BME280;67568;47.438;21.408;2023-02-20T07:08:54;101411.69;;;5.67;63.45
78313;BME280;67568;47.438;21.408;2023-02-20T07:11:22;101413.22;;;6.15;61.51
78313;BME280;67568;47.438;21.408;2023-02-20T07:13:49;101426.84;;;6.39;61.24
78313;BME280;67568;47.438;21.408;2023-02-20T07:16:18;101431.97;;;6.81;60.10
78313;BME280;67568;47.438;21.408;2023-02-20T07:18:45;101433.31;;;7.12;58.63
78313;BME280;67568;47.438;21.408;2023-02-20T07:21:13;101433.75;;;7.26;59.67
78313;BME280;67568;47.438;21.408;2023-02-20T07:23:40;101438.19;;;7.27;59.10
78313;BME280;67568;47.438;21.408;2023-02-20T07:26:23;101437.13;;;7.11;57.58
78313;BME280;67568;47.438;21.408;2023-02-20T07:28:50;101427.78;;;7.12;57.94
78313;BME280;67568;47.438;21.408;2023-02-20T07:31:20;101439.94;;;7.33;57.15
78313;BME280;67568;47.438;21.408;2023-02-20T07:33:50;101444.34;;;7.34;56.15
78313;BME280;67568;47.438;21.408;2023-02-20T07:36:19;101443.81;;;8.20;54.49
78313;BME280;67568;47.438;21.408;2023-02-20T07:38:56;101437.16;;;8.70;53.41
78313;BME280;67568;47.438;21.408;2023-02-20T07:41:27;101437.41;;;9.00;53.08
78313;BME280;67568;47.438;21.408;2023-02-20T07:43:55;101450.88;;;9.29;50.71
78313;BME280;67568;47.438;21.408;2023-02-20T07:46:26;101450.63;;;9.31;52.38
78313;BME280;67568;47.438;21.408;2023-02-20T07:48:53;101447.63;;;9.00;50.49
78313;BME280;67568;47.438;21.408;2023-02-20T07:51:22;101441.91;;;9.12;53.02
78313;BME280;67568;47.438;21.408;2023-02-20T07:53:49;101444.84;;;9.37;51.98
78313;BME280;67568;47.438;21.408;2023-02-20T07:56:17;101450.03;;;9.76;49.64
78313;BME280;67568;47.438;21.408;2023-02-20T07:58:48;101451.28;;;10.21;48.70
78313;BME280;67568;47.438;21.408;2023-02-20T08:01:26;101444.75;;;10.53;47.35
78313;BME280;67568;47.438;21.408;2023-02-20T08:03:55;101447.47;;;10.32;48.60
78313;BME280;67568;47.438;21.408;2023-02-20T08:06:21;101443.25;;;10.14;47.68
78313;BME280;67568;47.438;21.408;2023-02-20T08:08:57;101445.06;;;9.83;48.13
78313;BME280;67568;47.438;21.408;2023-02-20T08:11:24;101439.81;;;9.77;48.22
78313;BME280;67568;47.438;21.408;2023-02-20T08:13:51;101437.41;;;10.06;47.31
78313;BME280;67568;47.438;21.408;2023-02-20T08:16:21;101440.59;;;10.61;47.77
78313;BME280;67568;47.438;21.408;2023-02-20T08:18:51;101441.94;;;11.45;46.46
78313;BME280;67568;47.438;21.408;2023-02-20T08:21:18;101440.16;;;11.90;43.30
78313;BME280;67568;47.438;21.408;2023-02-20T08:23:45;101433.41;;;12.06;42.87
78313;BME280;67568;47.438;21.408;2023-02-20T08:26:14;101437.94;;;12.42;41.02
78313;BME280;67568;47.438;21.408;2023-02-20T08:28:50;101426.00;;;11.86;42.11
78313;BME280;67568;47.438;21.408;2023-02-20T08:31:17;101426.94;;;11.51;44.02
78313;BME280;67568;47.438;21.408;2023-02-20T08:33:57;101422.44;;;11.65;45.46
78313;BME280;67568;47.438;21.408;2023-02-20T08:36:26;101419.81;;;11.09;43.92
78313;BME280;67568;47.438;21.408;2023-02-20T08:38:53;101411.47;;;11.04;45.02
78313;BME280;67568;47.438;21.408;2023-02-20T08:41:22;101404.84;;;11.05;43.74
78313;BME280;67568;47.438;21.408;2023-02-20T08:43:49;101405.06;;;11.24;43.66
78313;BME280;67568;47.438;21.408;2023-02-20T08:46:16;101407.00;;;11.39;43.74
78313;BME280;67568;47.438;21.408;2023-02-20T08:48:43;101412.41;;;11.75;42.62
78313;BME280;67568;47.438;21.408;2023-02-20T08:51:22;101407.16;;;11.73;42.73
78313;BME280;67568;47.438;21.408;2023-02-20T08:53:49;101397.09;;;10.71;42.82
78313;BME280;67568;47.438;21.408;2023-02-20T08:56:20;101392.09;;;10.58;44.72
78313;BME280;67568;47.438;21.408;2023-02-20T08:58:47;101402.34;;;10.57;45.15
78313;BME280;67568;47.438;21.408;2023-02-20T09:01:13;101381.16;;;9.85;45.06
78313;BME280;67568;47.438;21.408;2023-02-20T09:03:40;101385.84;;;9.89;46.74
78313;BME280;67568;47.438;21.408;2023-02-20T09:06:07;101372.78;;;9.69;45.22
78313;BME280;67568;47.438;21.408;2023-02-20T09:08:37;101379.25;;;10.01;45.01
78313;BME280;67568;47.438;21.408;2023-02-20T09:11:03;101370.44;;;10.14;43.93
78313;BME280;67568;47.438;21.408;2023-02-20T09:13:30;101383.25;;;10.71;45.42
78313;BME280;67568;47.438;21.408;2023-02-20T09:15:57;101382.59;;;10.13;45.57
78313;BME280;67568;47.438;21.408;2023-02-20T09:18:26;101385.00;;;9.84;45.53
78313;BME280;67568;47.438;21.408;2023-02-20T09:20:54;101381.31;;;9.58;46.22
78313;BME280;67568;47.438;21.408;2023-02-20T09:23:21;101374.50;;;9.23;46.45
78313;BME280;67568;47.438;21.408;2023-02-20T09:25:47;101372.41;;;9.45;46.24
78313;BME280;67568;47.438;21.408;2023-02-20T09:28:14;101371.59;;;9.50;46.33
78313;BME280;67568;47.438;21.408;2023-02-20T09:30:41;101369.84;;;9.97;46.63
78313;BME280;67568;47.438;21.408;2023-02-20T09:33:08;101360.31;;;9.67;44.85
78313;BME280;67568;47.438;21.408;2023-02-20T09:35:34;101354.84;;;9.93;45.68
78313;BME280;67568;47.438;21.408;2023-02-20T09:38:01;101351.59;;;10.21;43.88
78313;BME280;67568;47.438;21.408;2023-02-20T09:40:29;101336.66;;;10.53;44.12
78313;BME280;67568;47.438;21.408;2023-02-20T09:46:17;101346.88;;;10.98;42.68
78313;BME280;67568;47.438;21.408;2023-02-20T09:49:01;101346.56;;;11.20;42.40
78313;BME280;67568;47.438;21.408;2023-02-20T09:51:36;101353.31;;;11.64;42.66
78313;BME280;67568;47.438;21.408;2023-02-20T09:56:51;101339.75;;;11.57;39.25
78313;BME280;67568;47.438;21.408;2023-02-20T09:59:26;101333.53;;;11.86;40.38
78313;BME280;67568;47.438;21.408;2023-02-20T10:01:58;101325.56;;;10.94;41.04
78313;BME280;67568;47.438;21.408;2023-02-20T10:04:46;101328.50;;;11.93;40.50
78313;BME280;67568;47.438;21.408;2023-02-20T10:09:57;101342.41;;;11.18;40.94
78313;BME280;67568;47.438;21.408;2023-02-20T10:17:53;101344.88;;;11.89;40.41
78313;BME280;67568;47.438;21.408;2023-02-20T10:25:49;101308.34;;;9.84;43.97
78313;BME280;67568;47.438;21.408;2023-02-20T10:28:18;101303.28;;;9.51;44.06
78313;BME280;67568;47.438;21.408;2023-02-20T10:33:51;101303.06;;;9.78;45.96
78313;BME280;67568;47.438;21.408;2023-02-20T10:36:21;101300.09;;;9.21;44.84
78313;BME280;67568;47.438;21.408;2023-02-20T10:47:18;101292.13;;;9.25;45.60
78313;BME280;67568;47.438;21.408;2023-02-20T10:52:28;101293.59;;;8.90;46.09
78313;BME280;67568;47.438;21.408;2023-02-20T10:57:45;101288.09;;;8.95;46.58
78313;BME280;67568;47.438;21.408;2023-02-20T11:00:19;101279.09;;;8.68;48.39
78313;BME280;67568;47.438;21.408;2023-02-20T11:02:55;101284.19;;;8.86;48.55
78313;BME280;67568;47.438;21.408;2023-02-20T11:05:26;101258.91;;;9.20;47.45
78313;BME280;67568;47.438;21.408;2023-02-20T11:07:59;101261.41;;;9.16;47.37
78313;BME280;67568;47.438;21.408;2023-02-20T11:10:26;101267.25;;;9.25;48.48
78313;BME280;67568;47.438;21.408;2023-02-20T11:12:56;101245.63;;;9.17;48.06
78313;BME280;67568;47.438;21.408;2023-02-20T11:15:24;101247.44;;;8.86;49.26
78313;BME280;67568;47.438;21.408;2023-02-20T11:17:57;101249.31;;;8.75;50.02
78313;BME280;67568;47.438;21.408;2023-02-20T11:20:54;101245.31;;;8.55;50.99
78313;BME280;67568;47.438;21.408;2023-02-20T11:23:44;101239.78;;;8.55;50.37
78313;BME280;67568;47.438;21.408;2023-02-20T11:28:59;101210.47;;;8.12;51.02
78313;BME280;67568;47.438;21.408;2023-02-20T11:31:27;101218.19;;;8.47;52.08
78313;BME280;67568;47.438;21.408;2023-02-20T11:33:55;101209.72;;;9.32;51.11
78313;BME280;67568;47.438;21.408;2023-02-20T11:36:24;101206.00;;;11.95;44.68
78313;BME280;67568;47.438;21.408;2023-02-20T11:38:58;101208.50;;;13.64;39.77
78313;BME280;67568;47.438;21.408;2023-02-20T11:41:26;101189.56;;;12.56;40.81
78313;BME280;67568;47.438;21.408;2023-02-20T11:44:24;101198.53;;;13.77;39.83
78313;BME280;67568;47.438;21.408;2023-02-20T11:47:18;101194.59;;;12.54;41.64
78313;BME280;67568;47.438;21.408;2023-02-20T11:49:45;101185.03;;;11.34;43.28
78313;BME280;67568;47.438;21.408;2023-02-20T11:52:18;101201.22;;;10.21;45.72
78313;BME280;67568;47.438;21.408;2023-02-20T11:54:47;101200.97;;;9.97;47.55
78313;BME280;67568;47.438;21.408;2023-02-20T11:57:37;101200.94;;;9.81;48.27
78313;BME280;67568;47.438;21.408;2023-02-20T12:02:50;101194.88;;;9.95;48.39
78313;BME280;67568;47.438;21.408;2023-02-20T12:05:18;101187.09;;;10.22;47.68
78313;BME280;67568;47.438;21.408;2023-02-20T12:13:04;101179.34;;;9.63;49.86
78313;BME280;67568;47.438;21.408;2023-02-20T12:15:32;101170.50;;;9.61;50.49
78313;BME280;67568;47.438;21.408;2023-02-20T12:20:47;101167.13;;;9.38;49.88
78313;BME280;67568;47.438;21.408;2023-02-20T12:23:22;101160.19;;;9.20;49.98
78313;BME280;67568;47.438;21.408;2023-02-20T12:28:42;101155.53;;;9.31;50.78
78313;BME280;67568;47.438;21.408;2023-02-20T12:31:59;101145.00;;;9.38;50.44
78313;BME280;67568;47.438;21.408;2023-02-20T12:37:29;101143.38;;;9.88;49.16
78313;BME280;67568;47.438;21.408;2023-02-20T12:43:10;101131.19;;;10.00;48.97
78313;BME280;67568;47.438;21.408;2023-02-20T12:48:30;101130.63;;;9.93;50.09
78313;BME280;67568;47.438;21.408;2023-02-20T12:51:17;101120.41;;;9.73;51.14
78313;BME280;67568;47.438;21.408;2023-02-20T12:54:18;101119.56;;;9.67;51.11
78313;BME280;67568;47.438;21.408;2023-02-20T12:59:58;101097.44;;;9.62;51.43
78313;BME280;67568;47.438;21.408;2023-02-20T13:05:11;101088.88;;;9.53;51.88
78313;BME280;67568;47.438;21.408;2023-02-20T13:07:52;101082.53;;;9.37;51.80
78313;BME280;67568;47.438;21.408;2023-02-20T13:12:50;101084.19;;;9.28;52.71
78313;BME280;67568;47.438;21.408;2023-02-20T13:15:46;101076.44;;;9.35;53.64
78313;BME280;67568;47.438;21.408;2023-02-20T13:21:02;101076.97;;;9.48;53.76
78313;BME280;67568;47.438;21.408;2023-02-20T13:23:35;101083.91;;;9.60;52.61
78313;BME280;67568;47.438;21.408;2023-02-20T13:29:27;101075.03;;;9.74;54.12
78313;BME280;67568;47.438;21.408;2023-02-20T13:31:56;101065.63;;;9.75;54.67
78313;BME280;67568;47.438;21.408;2023-02-20T13:34:33;101068.38;;;9.69;54.16
78313;BME280;67568;47.438;21.408;2023-02-20T13:37:00;101060.34;;;9.78;54.13
78313;BME280;67568;47.438;21.408;2023-02-20T13:41:59;101060.06;;;9.85;54.99
78313;BME280;67568;47.438;21.408;2023-02-20T13:49:53;101062.50;;;10.07;55.28
78313;BME280;67568;47.438;21.408;2023-02-20T13:52:42;101057.25;;;10.05;56.28
78313;BME280;67568;47.438;21.408;2023-02-20T13:57:55;101061.97;;;10.05;56.68
78313;BME280;67568;47.438;21.408;2023-02-20T14:00:27;101068.34;;;9.95;57.20
78313;BME280;67568;47.438;21.408;2023-02-20T14:02:55;101059.22;;;9.95;56.91
78313;BME280;67568;47.438;21.408;2023-02-20T14:05:30;101056.44;;;10.00;57.14
78313;BME280;67568;47.438;21.408;2023-02-20T14:07:58;101060.59;;;9.97;58.16
78313;BME280;67568;47.438;21.408;2023-02-20T14:10:37;101051.72;;;10.00;58.20
78313;BME280;67568;47.438;21.408;2023-02-20T14:13:17;101046.44;;;10.04;59.29
78313;BME280;67568;47.438;21.408;2023-02-20T14:15:55;101052.25;;;10.07;59.24
78313;BME280;67568;47.438;21.408;2023-02-20T14:18:31;101033.41;;;10.09;59.13
78313;BME280;67568;47.438;21.408;2023-02-20T14:21:06;101033.16;;;10.06;58.76
78313;BME280;67568;47.438;21.408;2023-02-20T14:23:34;101029.84;;;9.99;58.99
78313;BME280;67568;47.438;21.408;2023-02-20T14:26:04;101025.16;;;9.94;59.70
78313;BME280;67568;47.438;21.408;2023-02-20T14:28:33;101027.06;;;10.04;60.08
78313;BME280;67568;47.438;21.408;2023-02-20T14:31:17;101007.44;;;10.00;60.44
78313;BME280;67568;47.438;21.408;2023-02-20T14:33:44;101012.16;;;10.00;60.64
78313;BME280;67568;47.438;21.408;2023-02-20T14:36:39;101006.59;;;10.00;61.54
78313;BME280;67568;47.438;21.408;2023-02-20T14:41:49;101003.84;;;9.95;61.75
78313;BME280;67568;47.438;21.408;2023-02-20T14:44:16;101013.28;;;9.94;62.42
78313;BME280;67568;47.438;21.408;2023-02-20T14:46:44;100996.38;;;9.90;61.71
78313;BME280;67568;47.438;21.408;2023-02-20T14:49:13;100995.88;;;9.83;62.08
78313;BME280;67568;47.438;21.408;2023-02-20T14:51:41;100979.56;;;9.76;62.60
78313;BME280;67568;47.438;21.408;2023-02-20T14:54:16;100998.38;;;9.79;62.26
78313;BME280;67568;47.438;21.408;2023-02-20T14:56:44;100986.75;;;9.77;62.20
78313;BME280;67568;47.438;21.408;2023-02-20T14:59:16;100988.38;;;9.78;61.99
78313;BME280;67568;47.438;21.408;2023-02-20T15:01:42;100976.25;;;9.74;62.72
78313;BME280;67568;47.438;21.408;2023-02-20T15:04:14;100960.19;;;9.71;61.59
78313;BME280;67568;47.438;21.408;2023-02-20T15:06:44;100959.91;;;9.67;61.82
78313;BME280;67568;47.438;21.408;2023-02-20T15:09:12;100963.53;;;9.63;62.43